RJAH(TAF)
8/13 2h
TAF RJAH 121705Z 1218/1400 20014KT 9999 FEW010 BKN020 BECMG
1306/1309 18025G35KT TEMPO 1309/1315 18030G45KT 1500 +SHRA
BR FEW002 BKN005 FEW020CB BECMG 1315/1318 22010KT=
戻る
トップページへ戻る
IMOC Co,.Ltd.